createdAt,value
2018-04-25T00:01:14.790Z,99.90
2018-04-25T00:03:42.243Z,99.90
2018-04-25T00:06:09.728Z,99.90
2018-04-25T00:08:37.954Z,99.90
2018-04-25T00:11:05.443Z,99.90
2018-04-25T00:13:32.905Z,99.90
2018-04-25T00:16:00.387Z,99.90
2018-04-25T00:18:27.865Z,99.90
2018-04-25T00:20:55.333Z,99.90
2018-04-25T00:23:22.801Z,99.90
2018-04-25T00:25:50.282Z,99.90
2018-04-25T00:28:17.745Z,99.90
2018-04-25T00:30:45.225Z,99.90
2018-04-25T00:33:13.470Z,99.90
2018-04-25T00:35:40.986Z,99.90
2018-04-25T00:38:08.450Z,99.90
2018-04-25T00:40:35.991Z,99.90
2018-04-25T00:43:03.465Z,99.90
2018-04-25T00:45:30.935Z,99.90
2018-04-25T00:47:58.412Z,99.90
2018-04-25T00:50:25.892Z,99.90
2018-04-25T00:52:53.382Z,99.90
2018-04-25T00:55:21.606Z,99.90
2018-04-25T00:57:49.085Z,99.90
2018-04-25T01:00:17.361Z,99.90
2018-04-25T01:02:44.830Z,99.90
2018-04-25T01:05:13.058Z,99.90
2018-04-25T01:07:40.949Z,99.90
2018-04-25T01:10:08.505Z,99.90
2018-04-25T01:12:35.977Z,99.90
2018-04-25T01:15:03.544Z,99.90
2018-04-25T01:17:31.747Z,99.90
2018-04-25T01:20:00.080Z,99.90
2018-04-25T01:22:27.605Z,99.90
2018-04-25T01:24:56.793Z,99.90
2018-04-25T01:27:24.249Z,99.90
2018-04-25T01:29:51.768Z,99.90
2018-04-25T01:32:19.250Z,99.90
2018-04-25T01:34:52.339Z,99.90
2018-04-25T01:37:33.338Z,99.90
2018-04-25T01:40:00.808Z,99.90
2018-04-25T01:42:37.954Z,99.90
2018-04-25T01:48:04.797Z,99.90
2018-04-25T01:50:42.204Z,99.90
2018-04-25T01:53:22.422Z,99.90
2018-04-25T01:56:02.808Z,99.90
2018-04-25T01:58:42.273Z,99.90
2018-04-25T02:01:20.225Z,99.90
2018-04-25T02:03:54.332Z,99.90
2018-04-25T02:06:21.818Z,99.90
2018-04-25T02:08:50.065Z,99.90
2018-04-25T02:11:17.542Z,99.90
2018-04-25T02:13:45.035Z,99.90
2018-04-25T02:16:13.305Z,99.90
2018-04-25T02:18:41.559Z,99.90
2018-04-25T02:21:09.109Z,99.90
2018-04-25T02:23:36.576Z,99.90
2018-04-25T02:26:04.137Z,99.90
2018-04-25T02:28:31.628Z,99.90
2018-04-25T02:30:59.893Z,99.90
2018-04-25T02:33:27.369Z,99.90
2018-04-25T02:35:56.052Z,99.90
2018-04-25T02:38:24.305Z,99.90
2018-04-25T02:40:52.593Z,99.90
2018-04-25T02:43:21.614Z,99.90
2018-04-25T02:45:50.650Z,99.90
2018-04-25T02:48:18.153Z,99.90
2018-04-25T02:50:45.634Z,99.90
2018-04-25T02:53:13.940Z,99.90
2018-04-25T02:55:41.421Z,99.90
2018-04-25T02:58:08.901Z,99.90
2018-04-25T03:00:36.391Z,99.90
2018-04-25T03:03:03.888Z,99.90
2018-04-25T03:05:31.404Z,99.90
2018-04-25T03:07:59.671Z,99.90
2018-04-25T03:10:27.162Z,99.90
2018-04-25T03:12:54.651Z,99.90
2018-04-25T03:15:22.157Z,99.90
2018-04-25T03:17:50.421Z,99.90
2018-04-25T03:20:17.941Z,99.90
2018-04-25T03:22:45.458Z,99.90
2018-04-25T03:25:12.981Z,99.90
2018-04-25T03:27:40.475Z,99.90
2018-04-25T03:30:07.956Z,99.90
2018-04-25T03:32:35.492Z,99.90
2018-04-25T03:35:03.813Z,99.90
2018-04-25T03:37:31.366Z,99.90
2018-04-25T03:39:58.858Z,99.90
2018-04-25T03:42:26.344Z,99.90
2018-04-25T03:44:54.618Z,99.90
2018-04-25T03:47:22.165Z,99.90
2018-04-25T03:49:50.431Z,99.90
2018-04-25T03:52:17.971Z,99.90
2018-04-25T03:54:45.443Z,99.90
2018-04-25T03:57:12.913Z,99.90
2018-04-25T03:59:40.523Z,99.90
2018-04-25T04:02:08.018Z,99.90
2018-04-25T04:04:35.507Z,99.90
2018-04-25T04:07:03.757Z,99.90
2018-04-25T04:09:31.260Z,99.90
2018-04-25T04:11:58.805Z,99.90
2018-04-25T04:14:26.359Z,99.90
2018-04-25T04:16:55.330Z,99.90
2018-04-25T04:19:22.832Z,99.90
2018-04-25T04:21:51.127Z,99.90
2018-04-25T04:24:18.630Z,99.90
2018-04-25T04:26:46.124Z,99.90
2018-04-25T04:29:14.389Z,99.90
2018-04-25T04:31:41.887Z,99.90
2018-04-25T04:34:09.365Z,99.90
2018-04-25T04:36:36.879Z,99.90
2018-04-25T04:39:05.120Z,99.90
2018-04-25T04:41:32.722Z,99.90
2018-04-25T04:44:00.976Z,99.90
2018-04-25T04:46:28.467Z,99.90
2018-04-25T04:48:56.127Z,99.90
2018-04-25T04:51:23.617Z,99.90
2018-04-25T04:53:51.116Z,99.90
2018-04-25T04:56:18.706Z,99.90
2018-04-25T04:58:46.242Z,99.90
2018-04-25T05:01:13.715Z,99.90
2018-04-25T05:03:42.022Z,99.90
2018-04-25T05:06:09.518Z,99.90
2018-04-25T05:08:37.096Z,99.90
2018-04-25T05:11:04.535Z,99.90
2018-04-25T05:13:32.066Z,99.90
2018-04-25T05:16:00.253Z,99.90
2018-04-25T05:18:27.823Z,99.90
2018-04-25T05:20:55.300Z,99.90
2018-04-25T05:23:22.806Z,99.90
2018-04-25T05:25:50.312Z,99.90
2018-04-25T05:28:17.907Z,99.90
2018-04-25T05:30:46.167Z,99.90
2018-04-25T05:33:13.665Z,99.90
2018-04-25T05:35:41.203Z,99.90
2018-04-25T05:38:09.474Z,99.90
2018-04-25T05:40:37.015Z,99.90
2018-04-25T05:43:04.581Z,99.90
2018-04-25T05:45:32.130Z,99.90
2018-04-25T05:48:00.997Z,99.90
2018-04-25T05:50:29.232Z,99.90
2018-04-25T05:52:56.816Z,99.90
2018-04-25T05:55:24.289Z,99.90
2018-04-25T05:57:51.896Z,99.90
2018-04-25T06:00:19.325Z,99.90
2018-04-25T06:02:46.811Z,99.90
2018-04-25T06:05:15.077Z,99.90
2018-04-25T06:07:42.552Z,99.90
2018-04-25T06:10:10.843Z,99.90
2018-04-25T06:12:38.422Z,99.90
2018-04-25T06:15:05.880Z,99.90
2018-04-25T06:17:33.400Z,99.90
2018-04-25T06:20:00.896Z,99.90
2018-04-25T06:22:28.360Z,99.90
2018-04-25T06:24:55.890Z,99.90
2018-04-25T06:27:24.180Z,99.90
2018-04-25T06:29:52.728Z,99.90
2018-04-25T06:32:20.301Z,99.90
2018-04-25T06:34:47.796Z,99.90
2018-04-25T06:37:15.386Z,99.90
2018-04-25T06:39:43.027Z,99.90
2018-04-25T06:42:10.506Z,99.90
2018-04-25T06:44:38.036Z,99.90
2018-04-25T06:47:06.305Z,99.90
2018-04-25T06:49:33.782Z,99.90
2018-04-25T06:52:01.322Z,99.90
2018-04-25T06:54:28.871Z,99.90
2018-04-25T06:56:57.112Z,99.90
2018-04-25T06:59:24.596Z,99.90
2018-04-25T07:01:52.107Z,99.90
2018-04-25T07:04:19.732Z,99.90
2018-04-25T07:06:47.986Z,99.90
2018-04-25T07:09:15.471Z,99.90
2018-04-25T07:11:43.721Z,99.90
2018-04-25T07:14:12.777Z,99.90
2018-04-25T07:16:40.481Z,99.90
2018-04-25T07:19:08.126Z,99.90
2018-04-25T07:21:35.886Z,99.90
2018-04-25T07:24:03.486Z,99.90
2018-04-25T07:26:31.016Z,99.90
2018-04-25T07:28:58.513Z,99.90
2018-04-25T07:31:27.112Z,99.90
2018-04-25T07:33:54.660Z,99.90
2018-04-25T07:36:22.902Z,99.90
2018-04-25T07:38:50.397Z,99.90
2018-04-25T07:41:19.021Z,99.90
2018-04-25T07:43:46.529Z,99.90
2018-04-25T07:46:14.173Z,99.90
2018-04-25T07:48:41.692Z,99.90
2018-04-25T07:51:09.164Z,99.90
2018-04-25T07:53:36.718Z,99.90
2018-04-25T07:56:04.202Z,99.90
2018-04-25T07:58:31.748Z,99.90
2018-04-25T08:00:59.525Z,99.90
2018-04-25T08:03:27.692Z,99.90
2018-04-25T08:05:57.434Z,99.90
2018-04-25T08:08:25.933Z,99.90
2018-04-25T08:10:54.249Z,99.90
2018-04-25T08:13:34.017Z,99.90
2018-04-25T08:19:13.291Z,99.90
2018-04-25T08:21:43.636Z,99.90
2018-04-25T08:24:11.504Z,99.90
2018-04-25T08:26:39.843Z,99.90
2018-04-25T08:29:08.027Z,99.90
2018-04-25T08:31:35.534Z,99.90
2018-04-25T08:34:03.205Z,99.90
2018-04-25T08:36:30.876Z,99.90
2018-04-25T08:38:58.607Z,99.90
2018-04-25T08:41:26.278Z,99.90
2018-04-25T08:43:54.539Z,99.90
2018-04-25T08:46:22.888Z,99.90
2018-04-25T08:48:50.415Z,99.90
2018-04-25T08:51:19.391Z,99.90
2018-04-25T08:53:49.223Z,99.90
2018-04-25T08:56:16.836Z,99.90
2018-04-25T08:58:44.329Z,99.90
2018-04-25T09:01:12.672Z,99.90
2018-04-25T09:03:40.309Z,99.90
2018-04-25T09:06:09.022Z,99.90
2018-04-25T09:08:36.589Z,99.90
2018-04-25T09:11:04.222Z,99.90
2018-04-25T09:13:31.966Z,99.90
2018-04-25T09:16:00.424Z,99.90
2018-04-25T09:18:28.141Z,99.90
2018-04-25T09:20:56.019Z,99.90
2018-04-25T09:23:24.477Z,99.90
2018-04-25T09:25:52.269Z,99.90
2018-04-25T09:28:19.909Z,99.90
2018-04-25T09:30:47.425Z,99.90
2018-04-25T09:33:15.784Z,99.90
2018-04-25T09:35:43.627Z,99.90
2018-04-25T09:38:11.661Z,99.90
2018-04-25T09:40:39.302Z,99.90
2018-04-25T09:43:07.625Z,99.80
2018-04-25T09:45:37.929Z,99.70
2018-04-25T09:48:06.894Z,99.60
2018-04-25T09:50:36.049Z,99.90
2018-04-25T09:53:03.600Z,99.90
2018-04-25T09:55:31.368Z,99.90
2018-04-25T09:57:58.909Z,99.90
2018-04-25T10:00:31.960Z,99.90
2018-04-25T10:03:00.193Z,99.90
2018-04-25T10:05:36.076Z,99.90
2018-04-25T10:08:04.315Z,99.90
2018-04-25T10:10:31.816Z,99.90
2018-04-25T10:12:59.322Z,99.90
2018-04-25T10:15:27.585Z,99.90
2018-04-25T10:17:55.088Z,99.90
2018-04-25T10:20:22.557Z,99.90
2018-04-25T10:22:50.986Z,99.90
2018-04-25T10:25:19.237Z,99.90
2018-04-25T10:27:46.727Z,99.90
2018-04-25T10:30:14.990Z,99.90
2018-04-25T10:32:42.489Z,99.90
2018-04-25T10:35:10.821Z,99.90
2018-04-25T10:37:38.313Z,99.90
2018-04-25T10:40:06.594Z,99.90
2018-04-25T10:42:34.868Z,99.90
2018-04-25T10:45:03.167Z,99.90
2018-04-25T10:47:30.765Z,99.90
2018-04-25T10:50:00.912Z,99.90
2018-04-25T10:52:29.199Z,99.90
2018-04-25T10:54:57.531Z,99.90
2018-04-25T10:57:25.882Z,99.90
2018-04-25T10:59:53.394Z,99.90
2018-04-25T11:02:20.930Z,99.90
2018-04-25T11:04:49.310Z,99.90
2018-04-25T11:07:16.854Z,99.90
2018-04-25T11:09:44.403Z,99.90
2018-04-25T11:12:11.893Z,99.90
2018-04-25T11:14:39.458Z,99.90
2018-04-25T11:17:06.961Z,99.90
2018-04-25T11:19:34.670Z,99.90
2018-04-25T11:22:02.140Z,99.90
2018-04-25T11:24:30.106Z,99.90
2018-04-25T11:26:57.582Z,99.90
2018-04-25T11:29:25.103Z,99.90
2018-04-25T11:31:52.614Z,99.90
2018-04-25T11:34:20.122Z,99.90
2018-04-25T11:36:47.633Z,99.90
2018-04-25T11:39:15.117Z,99.90
2018-04-25T11:41:42.601Z,99.90
2018-04-25T11:44:10.354Z,99.90
2018-04-25T11:46:37.859Z,99.90
2018-04-25T11:49:05.353Z,99.90
2018-04-25T11:51:33.644Z,99.90
2018-04-25T11:54:01.168Z,99.90
2018-04-25T11:56:28.692Z,99.90
2018-04-25T11:58:56.298Z,99.90
2018-04-25T12:01:23.798Z,99.90
2018-04-25T12:03:51.582Z,99.90
2018-04-25T12:06:19.092Z,99.90
2018-04-25T12:08:47.346Z,99.90
2018-04-25T12:11:14.852Z,99.90
2018-04-25T12:13:42.710Z,99.90
2018-04-25T12:16:11.545Z,99.90
2018-04-25T12:18:39.757Z,99.90
2018-04-25T12:21:08.047Z,99.90
2018-04-25T12:23:35.532Z,99.90
2018-04-25T12:26:03.269Z,99.90
2018-04-25T12:28:31.878Z,99.90
2018-04-25T12:30:59.357Z,99.90
2018-04-25T12:33:26.851Z,99.90
2018-04-25T12:35:54.887Z,99.90
2018-04-25T12:38:23.086Z,99.90
2018-04-25T12:40:53.365Z,99.90
2018-04-25T12:43:21.766Z,99.90
2018-04-25T12:45:49.674Z,99.90
2018-04-25T12:48:17.219Z,99.90
2018-04-25T12:50:44.692Z,99.90
2018-04-25T12:53:12.192Z,99.90
2018-04-25T12:55:41.622Z,99.90
2018-04-25T12:58:10.776Z,99.90
2018-04-25T13:00:38.414Z,99.90
2018-04-25T13:03:06.077Z,99.90
2018-04-25T13:05:34.437Z,99.90
2018-04-25T13:08:02.392Z,99.90
2018-04-25T13:10:31.200Z,99.90
2018-04-25T13:12:58.750Z,99.90
2018-04-25T13:15:26.240Z,99.90
2018-04-25T13:17:53.759Z,99.90
2018-04-25T13:20:21.383Z,99.90
2018-04-25T13:22:49.614Z,99.90
2018-04-25T13:25:18.225Z,99.90
2018-04-25T13:27:45.716Z,99.90
2018-04-25T13:30:13.253Z,99.90
2018-04-25T13:32:41.565Z,99.90
2018-04-25T13:35:11.815Z,99.90
2018-04-25T13:37:39.659Z,99.90
2018-04-25T13:40:08.297Z,99.90
2018-04-25T13:42:36.562Z,99.90
2018-04-25T13:45:04.158Z,99.90
2018-04-25T13:47:34.160Z,99.90
2018-04-25T13:50:04.184Z,99.90
2018-04-25T13:52:32.687Z,99.90
2018-04-25T13:55:00.593Z,99.90
2018-04-25T13:57:28.646Z,99.90
2018-04-25T13:59:56.338Z,99.90
2018-04-25T14:02:23.881Z,99.90
2018-04-25T14:04:51.569Z,99.90
2018-04-25T14:07:19.087Z,99.90
2018-04-25T14:09:46.974Z,99.90
2018-04-25T14:12:14.519Z,99.90
2018-04-25T14:14:42.440Z,99.90
2018-04-25T14:17:10.017Z,99.90
2018-04-25T14:19:38.338Z,99.90
2018-04-25T14:22:05.892Z,99.90
2018-04-25T14:24:33.397Z,99.90
2018-04-25T14:27:00.899Z,99.90
2018-04-25T14:29:28.398Z,99.90
2018-04-25T14:31:55.936Z,99.90
2018-04-25T14:34:23.426Z,99.90
2018-04-25T14:36:51.634Z,99.90
2018-04-25T14:39:19.154Z,99.90
2018-04-25T14:41:46.721Z,99.90
2018-04-25T14:44:14.245Z,99.90
2018-04-25T14:46:41.717Z,99.90
2018-04-25T14:49:09.218Z,99.90
2018-04-25T14:51:36.712Z,99.90
2018-04-25T14:54:04.211Z,99.90
2018-04-25T14:56:31.839Z,99.90
2018-04-25T14:58:59.340Z,99.90
2018-04-25T15:01:26.848Z,99.90
2018-04-25T15:03:55.104Z,99.90
2018-04-25T15:06:22.624Z,99.90
2018-04-25T15:08:50.140Z,99.90
2018-04-25T15:11:18.381Z,99.90
2018-04-25T15:13:45.896Z,99.90
2018-04-25T15:16:13.569Z,99.90
2018-04-25T15:18:41.156Z,99.90
2018-04-25T15:21:08.675Z,99.90
2018-04-25T15:23:37.112Z,99.90
2018-04-25T15:26:04.597Z,99.90
2018-04-25T15:28:33.804Z,99.90
2018-04-25T15:31:01.859Z,99.90
2018-04-25T15:33:30.120Z,99.90
2018-04-25T15:35:57.704Z,99.90
2018-04-25T15:38:25.204Z,99.90
2018-04-25T15:40:52.741Z,99.90
2018-04-25T15:43:20.231Z,99.90
2018-04-25T15:45:47.794Z,99.90
2018-04-25T15:48:15.278Z,99.90
2018-04-25T15:50:42.820Z,99.90
2018-04-25T15:53:10.314Z,99.90
2018-04-25T15:55:37.888Z,99.90
2018-04-25T15:58:06.138Z,99.90
2018-04-25T16:00:34.734Z,99.90
2018-04-25T16:03:02.229Z,99.90
2018-04-25T16:05:29.752Z,99.90
2018-04-25T16:07:57.292Z,99.90
2018-04-25T16:10:24.805Z,99.90
2018-04-25T16:12:52.458Z,99.90
2018-04-25T16:15:20.006Z,99.90
2018-04-25T16:17:48.300Z,99.40
2018-04-25T16:20:15.802Z,99.40
2018-04-25T16:22:43.426Z,99.20
2018-04-25T16:25:10.870Z,99.80
2018-04-25T16:27:39.133Z,98.50
2018-04-25T16:30:06.672Z,98.50
2018-04-25T16:32:34.145Z,98.50
2018-04-25T16:35:01.689Z,98.20
2018-04-25T16:37:29.182Z,97.80
2018-04-25T16:39:57.460Z,98.20
2018-04-25T16:42:24.988Z,98.20
2018-04-25T16:44:52.717Z,98.80
2018-04-25T16:47:20.293Z,98.40
2018-04-25T16:49:47.829Z,98.00
2018-04-25T16:52:16.375Z,99.00
2018-04-25T16:54:43.935Z,99.50
2018-04-25T16:57:11.528Z,99.60
2018-04-25T16:59:39.467Z,99.80
2018-04-25T17:02:07.048Z,99.70
2018-04-25T17:04:35.329Z,99.90
2018-04-25T17:07:03.023Z,99.90
2018-04-25T17:09:30.587Z,99.90
2018-04-25T17:11:58.012Z,99.90
2018-04-25T17:14:26.261Z,99.90
2018-04-25T17:16:53.793Z,99.90
2018-04-25T17:19:21.281Z,99.90
2018-04-25T17:21:48.925Z,99.90
2018-04-25T17:24:16.447Z,99.90
2018-04-25T17:26:43.960Z,99.90
2018-04-25T17:29:11.579Z,99.90
2018-04-25T17:31:39.081Z,99.90
2018-04-25T17:34:06.754Z,99.90
2018-04-25T17:36:34.308Z,99.90
2018-04-25T17:39:02.586Z,99.90
2018-04-25T17:41:30.081Z,99.90
2018-04-25T17:43:57.586Z,99.90
2018-04-25T17:46:25.197Z,99.90
2018-04-25T17:48:52.752Z,99.90
2018-04-25T17:51:21.067Z,99.90
2018-04-25T17:53:48.635Z,99.90
2018-04-25T17:56:16.133Z,99.90
2018-04-25T17:58:43.642Z,99.90
2018-04-25T18:01:11.122Z,99.90
2018-04-25T18:03:38.632Z,99.90
2018-04-25T18:06:06.904Z,99.90
2018-04-25T18:08:35.161Z,99.90
2018-04-25T18:11:02.643Z,99.90
2018-04-25T18:13:30.971Z,99.90
2018-04-25T18:15:58.920Z,99.90
2018-04-25T18:18:26.433Z,99.90
2018-04-25T18:20:54.844Z,99.90
2018-04-25T18:23:22.404Z,99.90
2018-04-25T18:25:50.701Z,99.90
2018-04-25T18:28:18.206Z,99.90
2018-04-25T18:30:45.668Z,99.90
2018-04-25T18:33:13.925Z,99.90
2018-04-25T18:35:41.559Z,99.90
2018-04-25T18:38:09.046Z,99.90
2018-04-25T18:40:36.607Z,99.90
2018-04-25T18:43:04.094Z,99.90
2018-04-25T18:45:31.608Z,99.90
2018-04-25T18:47:59.084Z,99.90
2018-04-25T18:50:26.594Z,99.90
2018-04-25T18:52:54.266Z,99.90
2018-04-25T18:55:21.770Z,99.90
2018-04-25T18:57:49.244Z,99.90
2018-04-25T19:00:16.756Z,99.90
2018-04-25T19:02:44.228Z,99.90
2018-04-25T19:05:11.750Z,99.90
2018-04-25T19:07:39.282Z,99.90
2018-04-25T19:10:06.909Z,99.90
2018-04-25T19:12:34.316Z,99.90
2018-04-25T19:15:02.564Z,99.90
2018-04-25T19:17:30.094Z,99.90
2018-04-25T19:19:57.608Z,99.90
2018-04-25T19:22:25.874Z,99.90
2018-04-25T19:24:53.462Z,99.90
2018-04-25T19:27:21.714Z,99.90
2018-04-25T19:29:50.078Z,99.90
2018-04-25T19:32:17.577Z,99.90
2018-04-25T19:34:45.878Z,99.90
2018-04-25T19:37:13.956Z,99.90
2018-04-25T19:39:41.527Z,99.90
2018-04-25T19:42:09.006Z,99.90
2018-04-25T19:44:36.507Z,99.90
2018-04-25T19:47:04.752Z,99.90
2018-04-25T19:49:32.225Z,99.90
2018-04-25T19:51:59.788Z,99.90
2018-04-25T19:54:28.553Z,99.90
2018-04-25T19:56:57.737Z,99.90
2018-04-25T19:59:25.696Z,99.90
2018-04-25T20:01:53.246Z,99.90
2018-04-25T20:04:21.077Z,99.90
2018-04-25T20:06:48.584Z,99.90
2018-04-25T20:09:16.096Z,99.90
2018-04-25T20:11:44.435Z,99.90
2018-04-25T20:14:11.981Z,99.90
2018-04-25T20:16:39.473Z,99.90
2018-04-25T20:19:06.988Z,99.90
2018-04-25T20:21:34.809Z,99.90
2018-04-25T20:24:02.338Z,99.90
2018-04-25T20:26:29.878Z,99.90
2018-04-25T20:28:57.399Z,99.90
2018-04-25T20:31:26.044Z,99.90
2018-04-25T20:33:54.377Z,99.90
2018-04-25T20:36:22.036Z,99.90
2018-04-25T20:38:49.444Z,99.90
2018-04-25T20:41:16.983Z,99.90
2018-04-25T20:43:45.520Z,99.90
2018-04-25T20:46:13.379Z,99.90
2018-04-25T20:48:41.687Z,99.90
2018-04-25T20:51:10.118Z,99.90
2018-04-25T20:53:37.644Z,99.90
2018-04-25T20:56:05.402Z,99.90
2018-04-25T20:58:33.354Z,99.90
2018-04-25T21:01:02.365Z,99.90
2018-04-25T21:03:30.050Z,99.90
2018-04-25T21:05:57.557Z,99.90
2018-04-25T21:08:25.040Z,99.90
2018-04-25T21:10:52.596Z,99.90
2018-04-25T21:13:20.825Z,99.90
2018-04-25T21:15:48.547Z,99.90
2018-04-25T21:18:16.851Z,99.90
2018-04-25T21:20:44.329Z,99.90
2018-04-25T21:23:11.873Z,99.90
2018-04-25T21:25:39.355Z,99.90
2018-04-25T21:28:07.095Z,99.90
2018-04-25T21:30:34.598Z,99.90
2018-04-25T21:33:02.145Z,99.90
2018-04-25T21:35:29.660Z,99.90
2018-04-25T21:37:57.130Z,99.90
2018-04-25T21:40:24.630Z,99.90
2018-04-25T21:42:52.187Z,99.90
2018-04-25T21:45:19.819Z,99.90
2018-04-25T21:47:47.316Z,99.90
2018-04-25T21:50:15.015Z,99.90
2018-04-25T21:52:42.673Z,99.90
2018-04-25T21:55:10.936Z,99.90
2018-04-25T21:57:39.174Z,99.90
2018-04-25T22:00:06.660Z,99.90
2018-04-25T22:02:34.141Z,99.90
2018-04-25T22:05:02.407Z,99.90
2018-04-25T22:07:30.717Z,99.90
2018-04-25T22:09:58.254Z,99.90
2018-04-25T22:12:26.534Z,99.90
2018-04-25T22:14:54.769Z,99.90
2018-04-25T22:17:22.245Z,99.90
2018-04-25T22:19:49.723Z,99.90
2018-04-25T22:22:17.964Z,99.90
2018-04-25T22:24:45.465Z,99.90
2018-04-25T22:27:13.695Z,99.90
2018-04-25T22:29:41.961Z,99.90
2018-04-25T22:32:09.437Z,99.90
2018-04-25T22:34:36.974Z,99.90
2018-04-25T22:37:05.156Z,99.90
2018-04-25T22:39:32.682Z,99.90
2018-04-25T22:42:00.134Z,99.90
2018-04-25T22:44:27.601Z,99.90
2018-04-25T22:46:55.075Z,99.90
2018-04-25T22:49:22.549Z,99.90
2018-04-25T22:51:50.018Z,99.90
2018-04-25T22:54:17.523Z,99.90
2018-04-25T22:56:45.768Z,99.90
2018-04-25T22:59:13.238Z,99.90
2018-04-25T23:01:40.729Z,99.90
2018-04-25T23:04:08.184Z,99.90
2018-04-25T23:06:35.665Z,99.90
2018-04-25T23:09:03.182Z,99.90
2018-04-25T23:11:30.658Z,99.90
2018-04-25T23:13:58.884Z,99.90
2018-04-25T23:16:26.387Z,99.90
2018-04-25T23:18:54.783Z,99.90
2018-04-25T23:21:22.243Z,99.90
2018-04-25T23:23:49.734Z,99.90
2018-04-25T23:26:17.217Z,99.90
2018-04-25T23:28:44.694Z,99.90
2018-04-25T23:31:12.937Z,99.90
2018-04-25T23:33:40.429Z,99.90
2018-04-25T23:36:08.692Z,99.90
2018-04-25T23:38:36.184Z,99.90
2018-04-25T23:41:03.688Z,99.90
2018-04-25T23:43:31.172Z,99.90
2018-04-25T23:45:59.166Z,99.90
2018-04-25T23:48:27.410Z,99.90
2018-04-25T23:50:54.908Z,99.90
2018-04-25T23:53:22.405Z,99.90
2018-04-25T23:55:50.655Z,99.90
2018-04-25T23:58:18.132Z,99.90
